sensor_id;sensor_type;location;lat;lon;timestamp;P1;durP1;ratioP1;P2;durP2;ratioP2
43363;SDS011;40636;52.424;-1.948;2022-09-14T00:01:24;5.50;;;3.40;;
43363;SDS011;40636;52.424;-1.948;2022-09-14T00:03:54;9.32;;;3.67;;
43363;SDS011;40636;52.424;-1.948;2022-09-14T00:06:24;7.20;;;3.90;;
43363;SDS011;40636;52.424;-1.948;2022-09-14T00:08:52;7.90;;;4.20;;
43363;SDS011;40636;52.424;-1.948;2022-09-14T00:11:21;5.25;;;4.03;;
43363;SDS011;40636;52.424;-1.948;2022-09-14T00:13:49;7.35;;;3.75;;
43363;SDS011;40636;52.424;-1.948;2022-09-14T00:16:21;7.50;;;3.80;;
43363;SDS011;40636;52.424;-1.948;2022-09-14T00:18:56;6.53;;;4.22;;
43363;SDS011;40636;52.424;-1.948;2022-09-14T00:21:27;5.60;;;3.53;;
43363;SDS011;40636;52.424;-1.948;2022-09-14T00:23:54;8.80;;;3.38;;
43363;SDS011;40636;52.424;-1.948;2022-09-14T00:26:21;8.13;;;4.22;;
43363;SDS011;40636;52.424;-1.948;2022-09-14T00:28:50;4.88;;;3.67;;
43363;SDS011;40636;52.424;-1.948;2022-09-14T00:31:19;6.95;;;3.58;;
43363;SDS011;40636;52.424;-1.948;2022-09-14T00:33:47;4.55;;;2.88;;
43363;SDS011;40636;52.424;-1.948;2022-09-14T00:36:18;6.25;;;3.70;;
43363;SDS011;40636;52.424;-1.948;2022-09-14T00:38:47;6.70;;;4.32;;
43363;SDS011;40636;52.424;-1.948;2022-09-14T00:41:15;5.28;;;3.35;;
43363;SDS011;40636;52.424;-1.948;2022-09-14T00:43:52;9.90;;;5.13;;
43363;SDS011;40636;52.424;-1.948;2022-09-14T00:46:25;6.30;;;3.88;;
43363;SDS011;40636;52.424;-1.948;2022-09-14T00:48:53;6.72;;;3.78;;
43363;SDS011;40636;52.424;-1.948;2022-09-14T00:51:22;7.03;;;4.32;;
43363;SDS011;40636;52.424;-1.948;2022-09-14T00:53:50;5.28;;;3.75;;
43363;SDS011;40636;52.424;-1.948;2022-09-14T00:56:17;7.10;;;4.03;;
43363;SDS011;40636;52.424;-1.948;2022-09-14T00:58:45;7.82;;;4.70;;
43363;SDS011;40636;52.424;-1.948;2022-09-14T01:01:14;6.32;;;3.53;;
43363;SDS011;40636;52.424;-1.948;2022-09-14T01:03:42;5.50;;;3.80;;
43363;SDS011;40636;52.424;-1.948;2022-09-14T01:11:46;7.40;;;4.15;;
43363;SDS011;40636;52.424;-1.948;2022-09-14T01:14:41;10.32;;;3.70;;
43363;SDS011;40636;52.424;-1.948;2022-09-14T01:22:51;7.70;;;4.15;;
43363;SDS011;40636;52.424;-1.948;2022-09-14T01:28:20;9.75;;;4.28;;
43363;SDS011;40636;52.424;-1.948;2022-09-14T01:30:52;5.68;;;3.75;;
43363;SDS011;40636;52.424;-1.948;2022-09-14T01:33:23;5.82;;;4.07;;
43363;SDS011;40636;52.424;-1.948;2022-09-14T01:35:58;5.43;;;3.95;;
43363;SDS011;40636;52.424;-1.948;2022-09-14T01:38:33;9.38;;;4.70;;
43363;SDS011;40636;52.424;-1.948;2022-09-14T01:41:06;6.28;;;4.63;;
43363;SDS011;40636;52.424;-1.948;2022-09-14T01:43:38;10.25;;;4.55;;
43363;SDS011;40636;52.424;-1.948;2022-09-14T01:46:17;7.65;;;4.75;;
43363;SDS011;40636;52.424;-1.948;2022-09-14T01:48:49;7.88;;;4.18;;
43363;SDS011;40636;52.424;-1.948;2022-09-14T01:51:25;17.58;;;5.03;;
43363;SDS011;40636;52.424;-1.948;2022-09-14T01:53:59;7.30;;;4.50;;
43363;SDS011;40636;52.424;-1.948;2022-09-14T01:56:36;6.45;;;4.45;;
43363;SDS011;40636;52.424;-1.948;2022-09-14T01:59:09;8.05;;;4.60;;
43363;SDS011;40636;52.424;-1.948;2022-09-14T02:01:48;5.07;;;4.18;;
43363;SDS011;40636;52.424;-1.948;2022-09-14T02:05:25;7.63;;;4.90;;
43363;SDS011;40636;52.424;-1.948;2022-09-14T02:07:19;7.60;;;4.15;;
43363;SDS011;40636;52.424;-1.948;2022-09-14T02:09:46;8.65;;;4.40;;
43363;SDS011;40636;52.424;-1.948;2022-09-14T02:12:14;7.40;;;4.22;;
43363;SDS011;40636;52.424;-1.948;2022-09-14T02:14:42;7.25;;;4.55;;
43363;SDS011;40636;52.424;-1.948;2022-09-14T02:17:11;8.27;;;4.90;;
43363;SDS011;40636;52.424;-1.948;2022-09-14T02:19:40;6.00;;;3.60;;
43363;SDS011;40636;52.424;-1.948;2022-09-14T02:22:10;6.35;;;4.57;;
43363;SDS011;40636;52.424;-1.948;2022-09-14T02:24:36;6.78;;;4.72;;
43363;SDS011;40636;52.424;-1.948;2022-09-14T02:27:04;7.03;;;4.00;;
43363;SDS011;40636;52.424;-1.948;2022-09-14T02:29:32;7.35;;;3.97;;
43363;SDS011;40636;52.424;-1.948;2022-09-14T02:38:01;8.98;;;4.30;;
43363;SDS011;40636;52.424;-1.948;2022-09-14T02:43:50;9.43;;;4.55;;
43363;SDS011;40636;52.424;-1.948;2022-09-14T02:46:36;7.03;;;4.65;;
43363;SDS011;40636;52.424;-1.948;2022-09-14T02:49:12;7.45;;;4.70;;
43363;SDS011;40636;52.424;-1.948;2022-09-14T02:54:36;8.00;;;4.88;;
43363;SDS011;40636;52.424;-1.948;2022-09-14T02:57:07;9.75;;;4.63;;
43363;SDS011;40636;52.424;-1.948;2022-09-14T02:59:34;10.43;;;4.55;;
43363;SDS011;40636;52.424;-1.948;2022-09-14T03:02:01;8.57;;;4.43;;
43363;SDS011;40636;52.424;-1.948;2022-09-14T03:04:28;8.65;;;4.18;;
43363;SDS011;40636;52.424;-1.948;2022-09-14T03:06:54;7.05;;;4.20;;
43363;SDS011;40636;52.424;-1.948;2022-09-14T03:09:22;7.13;;;4.65;;
43363;SDS011;40636;52.424;-1.948;2022-09-14T03:11:48;7.47;;;5.15;;
43363;SDS011;40636;52.424;-1.948;2022-09-14T03:14:15;9.35;;;5.68;;
43363;SDS011;40636;52.424;-1.948;2022-09-14T03:16:42;9.05;;;4.95;;
43363;SDS011;40636;52.424;-1.948;2022-09-14T03:19:08;6.28;;;4.63;;
43363;SDS011;40636;52.424;-1.948;2022-09-14T03:21:38;8.18;;;4.72;;
43363;SDS011;40636;52.424;-1.948;2022-09-14T03:24:05;5.63;;;4.05;;
43363;SDS011;40636;52.424;-1.948;2022-09-14T03:26:33;7.57;;;4.38;;
43363;SDS011;40636;52.424;-1.948;2022-09-14T03:29:02;8.02;;;4.65;;
43363;SDS011;40636;52.424;-1.948;2022-09-14T03:31:31;8.73;;;4.28;;
43363;SDS011;40636;52.424;-1.948;2022-09-14T03:33:59;12.48;;;4.88;;
43363;SDS011;40636;52.424;-1.948;2022-09-14T03:36:28;9.63;;;4.68;;
43363;SDS011;40636;52.424;-1.948;2022-09-14T03:38:57;7.47;;;5.10;;
43363;SDS011;40636;52.424;-1.948;2022-09-14T03:41:25;10.00;;;5.53;;
43363;SDS011;40636;52.424;-1.948;2022-09-14T03:43:51;8.90;;;5.22;;
43363;SDS011;40636;52.424;-1.948;2022-09-14T03:46:21;9.40;;;5.10;;
43363;SDS011;40636;52.424;-1.948;2022-09-14T03:48:50;10.23;;;5.72;;
43363;SDS011;40636;52.424;-1.948;2022-09-14T03:51:17;9.13;;;5.35;;
43363;SDS011;40636;52.424;-1.948;2022-09-14T03:53:44;8.25;;;5.05;;
43363;SDS011;40636;52.424;-1.948;2022-09-14T03:56:13;11.68;;;6.22;;
43363;SDS011;40636;52.424;-1.948;2022-09-14T03:58:45;7.80;;;5.13;;
43363;SDS011;40636;52.424;-1.948;2022-09-14T04:01:14;12.60;;;5.22;;
43363;SDS011;40636;52.424;-1.948;2022-09-14T04:03:44;12.10;;;6.00;;
43363;SDS011;40636;52.424;-1.948;2022-09-14T04:06:13;9.60;;;5.82;;
43363;SDS011;40636;52.424;-1.948;2022-09-14T04:08:41;10.10;;;5.07;;
43363;SDS011;40636;52.424;-1.948;2022-09-14T04:11:10;7.80;;;5.45;;
43363;SDS011;40636;52.424;-1.948;2022-09-14T04:13:40;11.43;;;5.40;;
43363;SDS011;40636;52.424;-1.948;2022-09-14T04:16:07;8.85;;;5.35;;
43363;SDS011;40636;52.424;-1.948;2022-09-14T04:18:35;10.45;;;5.20;;
43363;SDS011;40636;52.424;-1.948;2022-09-14T04:21:03;8.85;;;5.05;;
43363;SDS011;40636;52.424;-1.948;2022-09-14T04:23:33;9.38;;;6.35;;
43363;SDS011;40636;52.424;-1.948;2022-09-14T04:26:17;6.80;;;5.28;;
43363;SDS011;40636;52.424;-1.948;2022-09-14T04:28:46;9.18;;;5.30;;
43363;SDS011;40636;52.424;-1.948;2022-09-14T04:31:13;11.48;;;6.80;;
43363;SDS011;40636;52.424;-1.948;2022-09-14T04:33:41;9.60;;;5.43;;
43363;SDS011;40636;52.424;-1.948;2022-09-14T04:36:09;11.57;;;5.50;;
43363;SDS011;40636;52.424;-1.948;2022-09-14T04:38:39;10.75;;;5.47;;
43363;SDS011;40636;52.424;-1.948;2022-09-14T04:41:10;8.00;;;5.22;;
43363;SDS011;40636;52.424;-1.948;2022-09-14T04:43:39;8.98;;;5.53;;
43363;SDS011;40636;52.424;-1.948;2022-09-14T04:46:12;12.27;;;5.18;;
43363;SDS011;40636;52.424;-1.948;2022-09-14T04:48:41;10.15;;;4.85;;
43363;SDS011;40636;52.424;-1.948;2022-09-14T04:53:36;14.32;;;6.82;;
43363;SDS011;40636;52.424;-1.948;2022-09-14T04:56:05;8.18;;;5.38;;
43363;SDS011;40636;52.424;-1.948;2022-09-14T04:58:34;11.98;;;5.25;;
43363;SDS011;40636;52.424;-1.948;2022-09-14T05:01:05;12.60;;;7.97;;
43363;SDS011;40636;52.424;-1.948;2022-09-14T05:03:34;9.60;;;5.85;;
43363;SDS011;40636;52.424;-1.948;2022-09-14T05:06:05;9.18;;;5.07;;
43363;SDS011;40636;52.424;-1.948;2022-09-14T05:08:34;11.43;;;5.50;;
43363;SDS011;40636;52.424;-1.948;2022-09-14T05:11:04;8.88;;;4.88;;
43363;SDS011;40636;52.424;-1.948;2022-09-14T05:13:34;11.45;;;5.72;;
43363;SDS011;40636;52.424;-1.948;2022-09-14T05:16:07;11.50;;;6.07;;
43363;SDS011;40636;52.424;-1.948;2022-09-14T05:18:42;12.07;;;7.10;;
43363;SDS011;40636;52.424;-1.948;2022-09-14T05:21:13;10.40;;;5.60;;
43363;SDS011;40636;52.424;-1.948;2022-09-14T05:23:42;8.95;;;5.60;;
43363;SDS011;40636;52.424;-1.948;2022-09-14T05:26:10;13.75;;;5.47;;
43363;SDS011;40636;52.424;-1.948;2022-09-14T05:28:38;11.63;;;5.90;;
43363;SDS011;40636;52.424;-1.948;2022-09-14T05:31:06;10.55;;;5.75;;
43363;SDS011;40636;52.424;-1.948;2022-09-14T05:33:35;10.80;;;5.53;;
43363;SDS011;40636;52.424;-1.948;2022-09-14T05:36:03;14.32;;;6.03;;
43363;SDS011;40636;52.424;-1.948;2022-09-14T05:38:32;8.98;;;6.15;;
43363;SDS011;40636;52.424;-1.948;2022-09-14T05:41:00;9.35;;;5.88;;
43363;SDS011;40636;52.424;-1.948;2022-09-14T05:43:28;11.25;;;6.03;;
43363;SDS011;40636;52.424;-1.948;2022-09-14T05:45:55;10.73;;;5.63;;
43363;SDS011;40636;52.424;-1.948;2022-09-14T05:48:26;9.90;;;5.93;;
43363;SDS011;40636;52.424;-1.948;2022-09-14T05:50:59;10.20;;;5.65;;
43363;SDS011;40636;52.424;-1.948;2022-09-14T05:53:28;9.90;;;5.90;;
43363;SDS011;40636;52.424;-1.948;2022-09-14T05:55:58;13.48;;;5.97;;
43363;SDS011;40636;52.424;-1.948;2022-09-14T05:58:30;10.40;;;5.78;;
43363;SDS011;40636;52.424;-1.948;2022-09-14T06:00:57;10.80;;;6.82;;
43363;SDS011;40636;52.424;-1.948;2022-09-14T06:03:24;10.60;;;5.82;;
43363;SDS011;40636;52.424;-1.948;2022-09-14T06:05:51;9.32;;;6.05;;
43363;SDS011;40636;52.424;-1.948;2022-09-14T06:08:20;12.63;;;5.63;;
43363;SDS011;40636;52.424;-1.948;2022-09-14T06:10:47;12.65;;;6.22;;
43363;SDS011;40636;52.424;-1.948;2022-09-14T06:13:14;11.68;;;5.97;;
43363;SDS011;40636;52.424;-1.948;2022-09-14T06:15:40;10.00;;;5.95;;
43363;SDS011;40636;52.424;-1.948;2022-09-14T06:18:07;11.27;;;5.90;;
43363;SDS011;40636;52.424;-1.948;2022-09-14T06:20:34;10.40;;;5.13;;
43363;SDS011;40636;52.424;-1.948;2022-09-14T06:23:05;8.07;;;5.63;;
43363;SDS011;40636;52.424;-1.948;2022-09-14T06:25:31;11.25;;;6.05;;
43363;SDS011;40636;52.424;-1.948;2022-09-14T06:27:58;9.32;;;5.28;;
43363;SDS011;40636;52.424;-1.948;2022-09-14T06:30:28;12.23;;;6.63;;
43363;SDS011;40636;52.424;-1.948;2022-09-14T06:32:54;12.63;;;6.32;;
43363;SDS011;40636;52.424;-1.948;2022-09-14T06:35:21;10.90;;;5.25;;
43363;SDS011;40636;52.424;-1.948;2022-09-14T06:37:48;11.55;;;5.70;;
43363;SDS011;40636;52.424;-1.948;2022-09-14T06:40:15;9.80;;;5.55;;
43363;SDS011;40636;52.424;-1.948;2022-09-14T06:42:42;10.43;;;5.43;;
43363;SDS011;40636;52.424;-1.948;2022-09-14T06:45:08;12.48;;;7.05;;
43363;SDS011;40636;52.424;-1.948;2022-09-14T06:47:35;10.82;;;6.20;;
43363;SDS011;40636;52.424;-1.948;2022-09-14T06:50:02;13.45;;;6.30;;
43363;SDS011;40636;52.424;-1.948;2022-09-14T06:52:29;15.68;;;6.95;;
43363;SDS011;40636;52.424;-1.948;2022-09-14T06:54:59;13.90;;;5.60;;
43363;SDS011;40636;52.424;-1.948;2022-09-14T06:57:25;15.35;;;8.07;;
43363;SDS011;40636;52.424;-1.948;2022-09-14T06:59:52;14.02;;;8.00;;
43363;SDS011;40636;52.424;-1.948;2022-09-14T07:02:19;14.48;;;8.00;;
43363;SDS011;40636;52.424;-1.948;2022-09-14T07:04:45;14.43;;;7.45;;
43363;SDS011;40636;52.424;-1.948;2022-09-14T07:07:13;15.77;;;7.70;;
43363;SDS011;40636;52.424;-1.948;2022-09-14T07:09:41;14.73;;;7.82;;
43363;SDS011;40636;52.424;-1.948;2022-09-14T07:12:08;16.95;;;8.55;;
43363;SDS011;40636;52.424;-1.948;2022-09-14T07:14:36;16.92;;;8.27;;
43363;SDS011;40636;52.424;-1.948;2022-09-14T07:17:03;14.93;;;9.32;;
43363;SDS011;40636;52.424;-1.948;2022-09-14T07:19:31;15.25;;;8.00;;
43363;SDS011;40636;52.424;-1.948;2022-09-14T07:21:59;17.92;;;8.80;;
43363;SDS011;40636;52.424;-1.948;2022-09-14T07:24:26;16.75;;;9.30;;
43363;SDS011;40636;52.424;-1.948;2022-09-14T07:26:53;15.25;;;8.60;;
43363;SDS011;40636;52.424;-1.948;2022-09-14T07:29:20;16.27;;;8.48;;
43363;SDS011;40636;52.424;-1.948;2022-09-14T07:31:50;17.85;;;8.50;;
43363;SDS011;40636;52.424;-1.948;2022-09-14T07:34:19;17.42;;;7.57;;
43363;SDS011;40636;52.424;-1.948;2022-09-14T07:36:47;16.38;;;10.45;;
43363;SDS011;40636;52.424;-1.948;2022-09-14T07:39:14;14.77;;;8.48;;
43363;SDS011;40636;52.424;-1.948;2022-09-14T07:41:42;20.48;;;8.52;;
43363;SDS011;40636;52.424;-1.948;2022-09-14T07:44:11;15.43;;;7.72;;
43363;SDS011;40636;52.424;-1.948;2022-09-14T07:46:41;13.00;;;6.72;;
43363;SDS011;40636;52.424;-1.948;2022-09-14T07:49:09;9.35;;;5.72;;
43363;SDS011;40636;52.424;-1.948;2022-09-14T07:51:37;10.77;;;6.53;;
43363;SDS011;40636;52.424;-1.948;2022-09-14T07:54:06;14.52;;;6.72;;
43363;SDS011;40636;52.424;-1.948;2022-09-14T07:56:33;11.70;;;6.15;;
43363;SDS011;40636;52.424;-1.948;2022-09-14T07:59:00;10.18;;;5.22;;
43363;SDS011;40636;52.424;-1.948;2022-09-14T08:04:15;11.55;;;6.07;;
43363;SDS011;40636;52.424;-1.948;2022-09-14T08:06:42;11.60;;;6.13;;
43363;SDS011;40636;52.424;-1.948;2022-09-14T08:09:08;8.93;;;5.28;;
43363;SDS011;40636;52.424;-1.948;2022-09-14T08:11:35;9.18;;;5.22;;
43363;SDS011;40636;52.424;-1.948;2022-09-14T08:14:04;8.95;;;5.78;;
43363;SDS011;40636;52.424;-1.948;2022-09-14T08:16:35;11.65;;;5.47;;
43363;SDS011;40636;52.424;-1.948;2022-09-14T08:19:09;6.40;;;4.70;;
43363;SDS011;40636;52.424;-1.948;2022-09-14T08:21:41;9.68;;;5.20;;
43363;SDS011;40636;52.424;-1.948;2022-09-14T08:24:18;14.73;;;6.75;;
43363;SDS011;40636;52.424;-1.948;2022-09-14T08:26:46;8.90;;;5.50;;
43363;SDS011;40636;52.424;-1.948;2022-09-14T08:29:14;10.55;;;5.55;;
43363;SDS011;40636;52.424;-1.948;2022-09-14T08:31:42;11.10;;;6.03;;
43363;SDS011;40636;52.424;-1.948;2022-09-14T08:34:11;13.05;;;6.28;;
43363;SDS011;40636;52.424;-1.948;2022-09-14T08:36:39;11.07;;;6.22;;
43363;SDS011;40636;52.424;-1.948;2022-09-14T08:39:11;8.68;;;6.40;;
43363;SDS011;40636;52.424;-1.948;2022-09-14T08:41:55;12.98;;;6.15;;
43363;SDS011;40636;52.424;-1.948;2022-09-14T08:44:27;11.25;;;5.65;;
43363;SDS011;40636;52.424;-1.948;2022-09-14T08:49:50;10.30;;;5.65;;
43363;SDS011;40636;52.424;-1.948;2022-09-14T08:57:47;11.88;;;5.32;;
43363;SDS011;40636;52.424;-1.948;2022-09-14T09:00:30;9.40;;;5.32;;
43363;SDS011;40636;52.424;-1.948;2022-09-14T09:08:53;7.40;;;4.30;;
43363;SDS011;40636;52.424;-1.948;2022-09-14T09:11:28;8.00;;;4.47;;
43363;SDS011;40636;52.424;-1.948;2022-09-14T09:14:45;8.02;;;4.75;;
43363;SDS011;40636;52.424;-1.948;2022-09-14T09:17:11;7.43;;;5.18;;
43363;SDS011;40636;52.424;-1.948;2022-09-14T09:22:18;7.70;;;4.93;;
43363;SDS011;40636;52.424;-1.948;2022-09-14T09:24:50;8.35;;;4.78;;
43363;SDS011;40636;52.424;-1.948;2022-09-14T09:27:19;11.18;;;5.68;;
43363;SDS011;40636;52.424;-1.948;2022-09-14T09:29:48;9.60;;;5.55;;
43363;SDS011;40636;52.424;-1.948;2022-09-14T09:32:17;9.20;;;5.78;;
43363;SDS011;40636;52.424;-1.948;2022-09-14T09:34:46;8.40;;;5.32;;
43363;SDS011;40636;52.424;-1.948;2022-09-14T09:37:14;10.07;;;6.10;;
43363;SDS011;40636;52.424;-1.948;2022-09-14T09:39:42;11.38;;;6.30;;
43363;SDS011;40636;52.424;-1.948;2022-09-14T09:42:14;12.27;;;6.43;;
43363;SDS011;40636;52.424;-1.948;2022-09-14T09:44:56;8.02;;;6.40;;
43363;SDS011;40636;52.424;-1.948;2022-09-14T09:47:41;8.18;;;6.50;;
43363;SDS011;40636;52.424;-1.948;2022-09-14T09:52:48;8.57;;;5.93;;
43363;SDS011;40636;52.424;-1.948;2022-09-14T09:55:17;9.68;;;5.35;;
43363;SDS011;40636;52.424;-1.948;2022-09-14T09:57:49;7.13;;;5.60;;
43363;SDS011;40636;52.424;-1.948;2022-09-14T10:00:23;7.32;;;5.65;;
43363;SDS011;40636;52.424;-1.948;2022-09-14T10:02:51;7.35;;;5.80;;
43363;SDS011;40636;52.424;-1.948;2022-09-14T10:05:26;7.40;;;5.45;;
43363;SDS011;40636;52.424;-1.948;2022-09-14T10:08:00;9.30;;;5.50;;
43363;SDS011;40636;52.424;-1.948;2022-09-14T10:13:02;10.77;;;5.20;;
43363;SDS011;40636;52.424;-1.948;2022-09-14T10:15:31;6.50;;;4.63;;
43363;SDS011;40636;52.424;-1.948;2022-09-14T10:20:42;10.57;;;3.97;;
43363;SDS011;40636;52.424;-1.948;2022-09-14T10:25:45;9.25;;;4.40;;
43363;SDS011;40636;52.424;-1.948;2022-09-14T10:28:27;5.80;;;3.20;;
43363;SDS011;40636;52.424;-1.948;2022-09-14T10:31:14;5.50;;;3.50;;
43363;SDS011;40636;52.424;-1.948;2022-09-14T10:33:54;5.40;;;3.30;;
43363;SDS011;40636;52.424;-1.948;2022-09-14T10:36:29;8.13;;;4.00;;
43363;SDS011;40636;52.424;-1.948;2022-09-14T10:41:34;11.18;;;5.45;;
43363;SDS011;40636;52.424;-1.948;2022-09-14T10:50:00;9.23;;;6.13;;
43363;SDS011;40636;52.424;-1.948;2022-09-14T10:55:40;10.50;;;6.10;;
43363;SDS011;40636;52.424;-1.948;2022-09-14T10:58:23;12.68;;;6.65;;
43363;SDS011;40636;52.424;-1.948;2022-09-14T11:03:35;10.43;;;7.30;;
43363;SDS011;40636;52.424;-1.948;2022-09-14T11:08:56;13.27;;;8.82;;
43363;SDS011;40636;52.424;-1.948;2022-09-14T11:16:55;15.07;;;7.97;;
43363;SDS011;40636;52.424;-1.948;2022-09-14T11:25:11;18.75;;;9.60;;
43363;SDS011;40636;52.424;-1.948;2022-09-14T11:27:46;14.85;;;8.68;;
43363;SDS011;40636;52.424;-1.948;2022-09-14T11:30:19;15.63;;;10.52;;
43363;SDS011;40636;52.424;-1.948;2022-09-14T11:32:53;17.67;;;10.77;;
43363;SDS011;40636;52.424;-1.948;2022-09-14T11:35:35;16.45;;;11.35;;
43363;SDS011;40636;52.424;-1.948;2022-09-14T11:38:13;12.77;;;9.20;;
43363;SDS011;40636;52.424;-1.948;2022-09-14T11:40:49;15.65;;;11.57;;
43363;SDS011;40636;52.424;-1.948;2022-09-14T11:46:04;20.17;;;11.00;;
43363;SDS011;40636;52.424;-1.948;2022-09-14T11:51:19;14.05;;;9.85;;
43363;SDS011;40636;52.424;-1.948;2022-09-14T11:53:50;14.10;;;9.50;;
43363;SDS011;40636;52.424;-1.948;2022-09-14T11:56:21;12.18;;;7.13;;
43363;SDS011;40636;52.424;-1.948;2022-09-14T11:58:53;9.93;;;5.78;;
43363;SDS011;40636;52.424;-1.948;2022-09-14T12:01:38;10.73;;;6.38;;
43363;SDS011;40636;52.424;-1.948;2022-09-14T12:04:15;9.70;;;5.47;;
43363;SDS011;40636;52.424;-1.948;2022-09-14T12:06:44;8.27;;;4.88;;
43363;SDS011;40636;52.424;-1.948;2022-09-14T12:11:53;5.25;;;3.10;;
43363;SDS011;40636;52.424;-1.948;2022-09-14T12:17:05;3.72;;;2.60;;
43363;SDS011;40636;52.424;-1.948;2022-09-14T12:23:20;5.53;;;2.55;;
43363;SDS011;40636;52.424;-1.948;2022-09-14T12:33:39;6.20;;;2.97;;
43363;SDS011;40636;52.424;-1.948;2022-09-14T12:59:21;4.43;;;2.13;;
43363;SDS011;40636;52.424;-1.948;2022-09-14T13:04:22;5.38;;;2.50;;
43363;SDS011;40636;52.424;-1.948;2022-09-14T13:06:50;5.63;;;2.22;;
43363;SDS011;40636;52.424;-1.948;2022-09-14T13:09:19;4.95;;;2.50;;
43363;SDS011;40636;52.424;-1.948;2022-09-14T13:11:51;3.92;;;2.53;;
43363;SDS011;40636;52.424;-1.948;2022-09-14T13:14:24;3.25;;;1.85;;
43363;SDS011;40636;52.424;-1.948;2022-09-14T13:16:53;2.08;;;1.83;;
43363;SDS011;40636;52.424;-1.948;2022-09-14T13:19:26;4.20;;;1.73;;
43363;SDS011;40636;52.424;-1.948;2022-09-14T13:21:55;6.78;;;2.17;;
43363;SDS011;40636;52.424;-1.948;2022-09-14T13:27:00;5.68;;;2.38;;
43363;SDS011;40636;52.424;-1.948;2022-09-14T13:29:28;4.45;;;1.77;;
43363;SDS011;40636;52.424;-1.948;2022-09-14T13:31:57;2.70;;;1.75;;
43363;SDS011;40636;52.424;-1.948;2022-09-14T13:34:30;3.72;;;2.13;;
43363;SDS011;40636;52.424;-1.948;2022-09-14T13:37:00;3.13;;;1.98;;
43363;SDS011;40636;52.424;-1.948;2022-09-14T13:39:28;5.43;;;1.77;;
43363;SDS011;40636;52.424;-1.948;2022-09-14T13:42:01;4.53;;;2.00;;
43363;SDS011;40636;52.424;-1.948;2022-09-14T13:44:32;5.05;;;1.80;;
43363;SDS011;40636;52.424;-1.948;2022-09-14T13:47:10;5.15;;;1.80;;
43363;SDS011;40636;52.424;-1.948;2022-09-14T13:49:40;3.95;;;1.70;;
43363;SDS011;40636;52.424;-1.948;2022-09-14T13:52:16;4.70;;;1.90;;
43363;SDS011;40636;52.424;-1.948;2022-09-14T13:54:45;3.45;;;1.90;;
43363;SDS011;40636;52.424;-1.948;2022-09-14T13:57:13;5.30;;;1.75;;
43363;SDS011;40636;52.424;-1.948;2022-09-14T14:02:50;3.58;;;1.83;;
43363;SDS011;40636;52.424;-1.948;2022-09-14T14:05:20;5.07;;;2.53;;
43363;SDS011;40636;52.424;-1.948;2022-09-14T14:07:55;4.25;;;2.00;;
43363;SDS011;40636;52.424;-1.948;2022-09-14T14:12:56;3.28;;;1.65;;
43363;SDS011;40636;52.424;-1.948;2022-09-14T14:17:49;7.20;;;1.90;;
43363;SDS011;40636;52.424;-1.948;2022-09-14T14:22:59;4.93;;;1.88;;
43363;SDS011;40636;52.424;-1.948;2022-09-14T14:25:28;5.15;;;2.13;;
43363;SDS011;40636;52.424;-1.948;2022-09-14T14:28:00;3.17;;;1.77;;
43363;SDS011;40636;52.424;-1.948;2022-09-14T14:30:32;3.13;;;1.50;;
43363;SDS011;40636;52.424;-1.948;2022-09-14T14:33:09;5.93;;;1.73;;
43363;SDS011;40636;52.424;-1.948;2022-09-14T14:35:45;5.28;;;1.52;;
43363;SDS011;40636;52.424;-1.948;2022-09-14T14:38:13;2.80;;;1.27;;
43363;SDS011;40636;52.424;-1.948;2022-09-14T14:40:41;6.88;;;1.90;;
43363;SDS011;40636;52.424;-1.948;2022-09-14T14:43:10;3.67;;;1.60;;
43363;SDS011;40636;52.424;-1.948;2022-09-14T14:45:46;2.53;;;1.58;;
43363;SDS011;40636;52.424;-1.948;2022-09-14T14:48:14;5.88;;;1.70;;
43363;SDS011;40636;52.424;-1.948;2022-09-14T14:50:41;5.63;;;1.58;;
43363;SDS011;40636;52.424;-1.948;2022-09-14T14:53:08;2.08;;;1.25;;
43363;SDS011;40636;52.424;-1.948;2022-09-14T14:55:35;2.97;;;1.40;;
43363;SDS011;40636;52.424;-1.948;2022-09-14T14:58:04;3.08;;;1.00;;
43363;SDS011;40636;52.424;-1.948;2022-09-14T15:00:35;3.38;;;1.00;;
43363;SDS011;40636;52.424;-1.948;2022-09-14T15:03:03;4.35;;;1.45;;
43363;SDS011;40636;52.424;-1.948;2022-09-14T15:05:31;1.52;;;1.20;;
43363;SDS011;40636;52.424;-1.948;2022-09-14T15:07:58;2.50;;;1.55;;
43363;SDS011;40636;52.424;-1.948;2022-09-14T15:10:26;2.15;;;1.08;;
43363;SDS011;40636;52.424;-1.948;2022-09-14T15:12:54;1.58;;;1.10;;
43363;SDS011;40636;52.424;-1.948;2022-09-14T15:15:22;2.60;;;1.00;;
43363;SDS011;40636;52.424;-1.948;2022-09-14T15:17:50;3.88;;;2.25;;
43363;SDS011;40636;52.424;-1.948;2022-09-14T15:20:18;4.60;;;1.17;;
43363;SDS011;40636;52.424;-1.948;2022-09-14T15:22:46;3.42;;;1.52;;
43363;SDS011;40636;52.424;-1.948;2022-09-14T15:25:14;2.05;;;1.30;;
43363;SDS011;40636;52.424;-1.948;2022-09-14T15:27:42;2.00;;;1.30;;
43363;SDS011;40636;52.424;-1.948;2022-09-14T15:30:09;2.05;;;1.10;;
43363;SDS011;40636;52.424;-1.948;2022-09-14T15:32:37;1.13;;;1.05;;
43363;SDS011;40636;52.424;-1.948;2022-09-14T15:35:05;2.75;;;1.08;;
43363;SDS011;40636;52.424;-1.948;2022-09-14T15:37:32;4.38;;;1.05;;
43363;SDS011;40636;52.424;-1.948;2022-09-14T15:39:59;3.72;;;1.60;;
43363;SDS011;40636;52.424;-1.948;2022-09-14T15:42:26;2.15;;;1.45;;
43363;SDS011;40636;52.424;-1.948;2022-09-14T15:44:53;1.58;;;1.40;;
43363;SDS011;40636;52.424;-1.948;2022-09-14T15:47:19;1.25;;;1.05;;
43363;SDS011;40636;52.424;-1.948;2022-09-14T15:49:48;2.28;;;1.42;;
43363;SDS011;40636;52.424;-1.948;2022-09-14T15:52:17;2.38;;;1.60;;
43363;SDS011;40636;52.424;-1.948;2022-09-14T15:54:44;3.05;;;1.27;;
43363;SDS011;40636;52.424;-1.948;2022-09-14T15:57:11;2.25;;;1.10;;
43363;SDS011;40636;52.424;-1.948;2022-09-14T15:59:38;4.53;;;1.13;;
43363;SDS011;40636;52.424;-1.948;2022-09-14T16:02:05;2.50;;;1.05;;
43363;SDS011;40636;52.424;-1.948;2022-09-14T16:04:37;2.33;;;1.50;;
43363;SDS011;40636;52.424;-1.948;2022-09-14T16:07:05;1.23;;;1.10;;
43363;SDS011;40636;52.424;-1.948;2022-09-14T16:09:38;1.90;;;1.10;;
43363;SDS011;40636;52.424;-1.948;2022-09-14T16:12:07;3.55;;;0.90;;
43363;SDS011;40636;52.424;-1.948;2022-09-14T16:14:35;1.73;;;1.10;;
43363;SDS011;40636;52.424;-1.948;2022-09-14T16:17:03;3.33;;;0.82;;
43363;SDS011;40636;52.424;-1.948;2022-09-14T16:19:30;2.25;;;1.08;;
43363;SDS011;40636;52.424;-1.948;2022-09-14T16:21:57;1.27;;;0.80;;
43363;SDS011;40636;52.424;-1.948;2022-09-14T16:24:24;1.45;;;1.20;;
43363;SDS011;40636;52.424;-1.948;2022-09-14T16:26:53;5.68;;;1.23;;
43363;SDS011;40636;52.424;-1.948;2022-09-14T16:29:20;2.50;;;1.40;;
43363;SDS011;40636;52.424;-1.948;2022-09-14T16:31:49;2.17;;;1.40;;
43363;SDS011;40636;52.424;-1.948;2022-09-14T16:34:21;0.85;;;0.80;;
43363;SDS011;40636;52.424;-1.948;2022-09-14T16:36:50;1.10;;;1.00;;
43363;SDS011;40636;52.424;-1.948;2022-09-14T16:39:18;4.38;;;1.67;;
43363;SDS011;40636;52.424;-1.948;2022-09-14T16:41:51;4.28;;;0.77;;
43363;SDS011;40636;52.424;-1.948;2022-09-14T16:44:22;1.85;;;0.93;;
43363;SDS011;40636;52.424;-1.948;2022-09-14T16:46:51;2.78;;;1.20;;
43363;SDS011;40636;52.424;-1.948;2022-09-14T16:49:20;1.02;;;1.00;;
43363;SDS011;40636;52.424;-1.948;2022-09-14T16:51:53;1.50;;;1.40;;
43363;SDS011;40636;52.424;-1.948;2022-09-14T16:54:21;2.53;;;1.42;;
43363;SDS011;40636;52.424;-1.948;2022-09-14T16:56:49;2.17;;;1.70;;
43363;SDS011;40636;52.424;-1.948;2022-09-14T16:59:16;4.20;;;2.97;;
43363;SDS011;40636;52.424;-1.948;2022-09-14T17:01:44;2.72;;;2.45;;
43363;SDS011;40636;52.424;-1.948;2022-09-14T17:04:18;3.78;;;3.08;;
43363;SDS011;40636;52.424;-1.948;2022-09-14T17:06:49;3.90;;;3.50;;
43363;SDS011;40636;52.424;-1.948;2022-09-14T17:09:20;3.88;;;3.50;;
43363;SDS011;40636;52.424;-1.948;2022-09-14T17:11:49;4.45;;;3.50;;
43363;SDS011;40636;52.424;-1.948;2022-09-14T17:14:18;7.43;;;3.42;;
43363;SDS011;40636;52.424;-1.948;2022-09-14T17:16:47;3.33;;;2.70;;